Griffin, Indiana
Current Conditions -  °F | °C
As of 7:55 AM on Saturday 22 Nov 2014 (Local Time) from KCUL Reporting Station
Overcast Overcast  
Wind Chill: 53°   Ceiling: 10000
Heat Index: 53°   Visibility: 10mi
Dew Point: 44°   Wind: 18mph
Humidity: 71%   Direction: 190°S
Pressure: 30.21"   Gusts: 24mph
Location:  38.2°N, 87.91°W
Report Text: KCUL 221355Z AUTO 19016G21KT 10SM OVC100 12/07 A3021 RMK AO2 T01180067
Loading
Personal Weather Stations






























Interactive Weather Map New forecast layout! Learn more

10-Day Weather Forecast

Advertisements
Track Severe Weather on mobile